Time;durP1;ratioP1;P1;durP2;ratioP2;P2;SDS_P1;SDS_P2;PMS_P1;PMS_P2;Temp;Humidity;BMP_temperature;BMP_pressure;BME280_temperature;BME280_humidity;BME280_pressure;Samples;Min_cycle;Max_cycle;Signal;HPM_P1;HPM_P2
2022/11/28 00:02:10;;;;;;;27.33;14.88;;;;;;;5.20;100.00;100998.56;5093036;28;20071;-76
2022/11/28 00:04:36;;;;;;;26.15;14.70;;;;;;;5.20;100.00;100988.00;5093433;28;20456;-75
2022/11/28 00:07:01;;;;;;;25.67;14.68;;;;;;;5.23;100.00;100993.06;5092112;28;20032;-76
2022/11/28 00:09:26;;;;;;;26.67;14.82;;;;;;;5.23;100.00;100987.81;5092788;28;20059;-76
2022/11/28 00:11:52;;;;;;;25.05;14.45;;;;;;;5.24;100.00;100983.38;5092879;28;20043;-76
2022/11/28 00:14:18;;;;;;;23.60;14.07;;;;;;;5.25;100.00;100988.53;5092639;28;20049;-75
2022/11/28 00:16:44;;;;;;;25.50;14.40;;;;;;;5.27;100.00;100980.56;5075170;28;20035;-76
2022/11/28 00:19:11;;;;;;;27.02;15.30;;;;;;;5.27;100.00;100960.28;5092935;28;20051;-81
2022/11/28 00:21:37;;;;;;;24.58;14.02;;;;;;;5.28;100.00;100961.97;5093016;28;20042;-76
2022/11/28 00:24:03;;;;;;;28.90;14.00;;;;;;;5.29;100.00;100962.81;5093097;28;20388;-75
2022/11/28 00:26:31;;;;;;;29.75;14.88;;;;;;;5.29;100.00;100971.56;5092524;28;20032;-75
2022/11/28 00:28:58;;;;;;;25.55;14.77;;;;;;;5.30;100.00;100978.53;5092304;28;20028;-76
2022/11/28 00:31:26;;;;;;;28.25;14.88;;;;;;;5.32;100.00;100985.53;5092623;28;20530;-75
2022/11/28 00:33:52;;;;;;;28.50;14.68;;;;;;;5.33;100.00;100985.41;5074522;28;20443;-76
2022/11/28 00:36:21;;;;;;;27.48;14.27;;;;;;;5.35;100.00;100987.97;5092729;28;20040;-75
2022/11/28 00:38:47;;;;;;;26.58;14.65;;;;;;;5.37;100.00;100983.41;5074599;28;20349;-76
2022/11/28 00:41:15;;;;;;;29.63;14.80;;;;;;;5.38;100.00;100975.38;5092804;28;20093;-76
2022/11/28 00:43:42;;;;;;;25.73;15.05;;;;;;;5.40;100.00;100976.13;5092442;28;20032;-76
2022/11/28 00:46:09;;;;;;;29.75;14.73;;;;;;;5.41;100.00;100984.91;5074515;28;20500;-76
2022/11/28 00:48:35;;;;;;;30.08;15.00;;;;;;;5.42;100.00;100979.53;5091781;28;20038;-76
2022/11/28 00:51:12;;;;;;;27.10;14.73;;;;;;;5.42;100.00;100963.69;5092733;28;20505;-75
2022/11/28 00:53:40;;;;;;;31.42;15.00;;;;;;;5.44;100.00;100963.59;5092022;28;20028;-76
2022/11/28 00:56:07;;;;;;;29.60;15.65;;;;;;;5.46;100.00;100956.41;5092466;28;20476;-76
2022/11/28 00:58:33;;;;;;;29.48;15.60;;;;;;;5.46;100.00;100957.28;5092133;28;20114;-75
2022/11/28 01:01:05;;;;;;;29.05;15.18;;;;;;;5.48;100.00;100959.81;5092552;28;20093;-75
2022/11/28 01:03:30;;;;;;;30.88;15.30;;;;;;;5.50;100.00;100949.13;5092186;28;20487;-75
2022/11/28 01:05:56;;;;;;;32.30;16.30;;;;;;;5.53;100.00;100952.41;5074342;28;20032;-76
2022/11/28 01:08:21;;;;;;;32.28;15.98;;;;;;;5.55;100.00;100952.31;5092421;28;20028;-75
2022/11/28 01:10:46;;;;;;;28.58;15.48;;;;;;;5.57;100.00;100945.97;5092073;28;20032;-76
2022/11/28 01:13:12;;;;;;;31.67;15.52;;;;;;;5.60;100.00;100940.50;5074377;28;20071;-76
2022/11/28 01:15:40;;;;;;;29.33;15.27;;;;;;;5.61;100.00;100944.81;5091863;28;20024;-75
2022/11/28 01:18:05;;;;;;;33.30;16.38;;;;;;;5.65;100.00;100940.16;5093073;28;20036;-75
2022/11/28 01:20:31;;;;;;;35.28;16.52;;;;;;;5.65;100.00;100938.38;5095902;28;20046;-76
2022/11/28 01:22:56;;;;;;;29.73;15.02;;;;;;;5.68;100.00;100939.97;5096064;28;20123;-75
2022/11/28 01:25:21;;;;;;;29.92;14.95;;;;;;;5.72;100.00;100941.44;5077392;28;20036;-76
2022/11/28 01:27:47;;;;;;;29.33;14.77;;;;;;;5.74;100.00;100941.34;5096291;28;20472;-76
2022/11/28 01:30:13;;;;;;;27.15;14.27;;;;;;;5.80;100.00;100930.34;5078059;28;20024;-76
2022/11/28 01:32:38;;;;;;;31.40;14.98;;;;;;;5.83;100.00;100938.06;5077419;28;20083;-76
2022/11/28 01:35:04;;;;;;;27.98;14.50;;;;;;;5.85;100.00;100928.22;5096129;28;20062;-75
2022/11/28 01:37:29;;;;;;;30.17;14.50;;;;;;;5.89;100.00;100927.06;5095829;28;20111;-76
2022/11/28 01:39:55;;;;;;;26.27;13.98;;;;;;;5.94;100.00;100930.25;5095951;28;20464;-75
2022/11/28 01:42:21;;;;;;;29.55;13.93;;;;;;;5.95;100.00;100931.91;5095962;28;20330;-80
2022/11/28 01:44:46;;;;;;;25.10;12.98;;;;;;;5.98;100.00;100928.25;5095924;28;20081;-74
2022/11/28 01:47:12;;;;;;;25.35;12.65;;;;;;;5.98;100.00;100925.63;5096204;28;20417;-74
2022/11/28 01:49:37;;;;;;;26.10;12.90;;;;;;;6.02;100.00;100928.88;5095635;28;20120;-75
2022/11/28 01:52:06;;;;;;;29.08;13.63;;;;;;;6.05;100.00;100936.63;5077532;28;20115;-74
2022/11/28 01:54:36;;;;;;;27.17;12.32;;;;;;;6.07;100.00;100924.13;5095501;28;20036;-74
2022/11/28 01:57:05;;;;;;;27.42;13.27;;;;;;;6.10;100.00;100921.28;5095941;28;20032;-75
2022/11/28 01:59:36;;;;;;;30.77;13.52;;;;;;;6.12;100.00;100908.78;5095357;28;20051;-75
2022/11/28 02:02:06;;;;;;;28.77;13.80;;;;;;;6.15;100.00;100909.44;5095855;28;20028;-74
2022/11/28 02:04:33;;;;;;;27.23;12.73;;;;;;;6.15;100.00;100914.72;5095445;28;20040;-75
2022/11/28 02:06:59;;;;;;;27.42;13.05;;;;;;;6.17;100.00;100911.97;5095616;28;20035;-75
2022/11/28 02:09:24;;;;;;;27.77;13.07;;;;;;;6.20;100.00;100916.19;5095205;28;20388;-81
2022/11/28 02:11:58;;;;;;;29.33;13.80;;;;;;;6.21;100.00;100913.44;5095864;28;20032;-75
2022/11/28 02:14:40;;;;;;;24.88;12.82;;;;;;;6.22;100.00;100914.28;5095824;28;20032;-75
2022/11/28 02:17:14;;;;;;;29.70;13.82;;;;;;;6.23;100.00;100913.34;5095941;28;20039;-75
2022/11/28 02:19:48;;;;;;;31.08;14.02;;;;;;;6.27;100.00;100920.06;5094818;28;20024;-74
2022/11/28 02:22:51;;;;;;;31.25;13.82;;;;;;;6.28;100.00;100919.13;5095112;28;20035;-74
2022/11/28 02:25:54;;;;;;;33.60;14.10;;;;;;;6.28;100.00;100912.03;5095450;28;20032;-74
2022/11/28 02:28:39;;;;;;;32.25;13.60;;;;;;;6.31;100.00;100910.97;5094121;28;20041;-74
2022/11/28 02:31:37;;;;;;;30.38;13.50;;;;;;;6.35;100.00;100912.44;5076135;28;20066;-74
2022/11/28 02:34:13;;;;;;;27.52;13.63;;;;;;;6.38;100.00;100911.41;5095062;28;20446;-75
2022/11/28 02:36:59;;;;;;;30.23;13.10;;;;;;;6.38;100.00;100908.75;5094721;28;20024;-76
2022/11/28 02:39:59;;;;;;;27.95;13.57;;;;;;;6.38;100.00;100908.75;5094889;28;20024;-74
2022/11/28 02:43:02;;;;;;;28.88;13.23;;;;;;;6.40;100.00;100902.38;5094727;28;20062;-75
2022/11/28 02:46:16;;;;;;;28.02;13.38;;;;;;;6.42;100.00;100910.19;4992869;28;20038;-74
2022/11/28 02:48:48;;;;;;;27.13;13.05;;;;;;;6.44;100.00;100913.59;5080815;28;20044;-75
2022/11/28 02:51:22;;;;;;;28.73;13.65;;;;;;;6.42;100.00;100912.84;5094748;28;20038;-75
2022/11/28 02:53:49;;;;;;;26.17;12.95;;;;;;;6.44;100.00;100903.03;5094903;28;20103;-75
2022/11/28 02:56:15;;;;;;;27.25;13.15;;;;;;;6.46;100.00;100904.56;5094232;28;20035;-75
2022/11/28 02:58:40;;;;;;;32.40;14.35;;;;;;;6.47;100.00;100914.22;5095173;28;20028;-74
2022/11/28 03:01:23;;;;;;;29.60;14.50;;;;;;;6.49;100.00;100912.31;5076606;28;20105;-75
2022/11/28 03:03:48;;;;;;;29.35;14.43;;;;;;;6.50;100.00;100908.69;5094088;28;20024;-75
2022/11/28 03:06:39;;;;;;;30.48;14.73;;;;;;;6.52;100.00;100904.16;5094418;28;20158;-75
2022/11/28 03:09:04;;;;;;;30.42;15.02;;;;;;;6.55;100.00;100913.66;5076064;28;20067;-75
2022/11/28 03:12:00;;;;;;;29.88;14.60;;;;;;;6.58;100.00;100910.78;5093998;28;20067;-75
2022/11/28 03:14:49;;;;;;;33.47;15.70;;;;;;;6.57;100.00;100910.88;5094237;28;20028;-75
2022/11/28 03:17:47;;;;;;;32.63;15.25;;;;;;;6.58;100.00;100909.94;5094490;28;20176;-75
2022/11/28 03:20:39;;;;;;;33.92;15.70;;;;;;;6.59;100.00;100906.34;5094091;28;20032;-75
2022/11/28 03:23:16;;;;;;;31.65;16.00;;;;;;;6.60;100.00;100906.25;5094168;28;20028;-75
2022/11/28 03:26:05;;;;;;;33.78;16.52;;;;;;;6.60;100.00;100906.25;5093706;28;20036;-75
2022/11/28 03:28:36;;;;;;;36.50;17.00;;;;;;;6.60;100.00;100903.59;5094235;28;20104;-75
2022/11/28 03:31:06;;;;;;;38.10;17.42;;;;;;;6.61;100.00;100893.84;5093952;28;20036;-75
2022/11/28 03:33:43;;;;;;;39.15;17.98;;;;;;;6.61;100.00;100902.63;5094188;28;20052;-74
2022/11/28 03:36:18;;;;;;;40.15;18.05;;;;;;;6.62;100.00;100904.31;5093984;28;20020;-75
2022/11/28 03:38:48;;;;;;;39.53;17.77;;;;;;;6.64;100.00;100915.66;5092985;28;20388;-74
2022/11/28 03:41:19;;;;;;;34.67;16.92;;;;;;;6.64;100.00;100904.22;5093851;28;20096;-74
2022/11/28 03:43:55;;;;;;;39.45;17.20;;;;;;;6.66;100.00;100912.91;5078014;28;20384;-75
2022/11/28 03:46:25;;;;;;;37.25;17.80;;;;;;;6.66;100.00;100912.91;5098137;28;20032;-74
2022/11/28 03:48:55;;;;;;;39.47;17.35;;;;;;;6.66;100.00;100908.44;5093067;28;20114;-74
2022/11/28 03:51:27;;;;;;;37.85;17.63;;;;;;;6.67;100.00;100903.97;5093555;28;20031;-74
2022/11/28 03:54:14;;;;;;;39.97;18.20;;;;;;;6.66;100.00;100913.72;5093199;28;20020;-74
2022/11/28 03:57:09;;;;;;;39.40;17.63;;;;;;;6.67;100.00;100909.28;5092776;28;20380;-76
2022/11/28 03:59:43;;;;;;;41.30;18.35;;;;;;;6.66;100.00;100911.06;5082005;28;20450;-74
2022/11/28 04:02:37;;;;;;;44.53;19.20;;;;;;;6.67;100.00;100914.56;5093502;28;20032;-75
2022/11/28 04:05:28;;;;;;;44.03;19.48;;;;;;;6.67;100.00;100915.44;5093058;28;20465;-74
2022/11/28 04:08:23;;;;;;;40.42;19.20;;;;;;;6.68;100.00;100911.81;5074886;28;20036;-75
2022/11/28 04:11:01;;;;;;;42.60;19.50;;;;;;;6.67;100.00;100909.28;5092894;28;20024;-78
2022/11/28 04:13:34;;;;;;;42.97;19.00;;;;;;;6.67;100.00;100910.13;5093410;28;20085;-74
2022/11/28 04:16:11;;;;;;;42.92;19.58;;;;;;;6.66;100.00;100910.25;5092863;28;20115;-74
2022/11/28 04:18:54;;;;;;;43.58;19.67;;;;;;;6.65;100.00;100909.38;5093138;28;20036;-74
2022/11/28 04:21:28;;;;;;;38.05;17.58;;;;;;;6.66;100.00;100913.72;5092718;28;20039;-76
2022/11/28 04:23:59;;;;;;;39.97;17.80;;;;;;;6.66;100.00;100920.81;5092278;28;20062;-75
2022/11/28 04:26:32;;;;;;;38.10;17.80;;;;;;;6.65;100.00;100914.66;5092939;28;20031;-74
2022/11/28 04:29:02;;;;;;;42.65;17.55;;;;;;;6.65;100.00;100916.47;5092403;28;20049;-74
2022/11/28 04:31:29;;;;;;;41.28;18.13;;;;;;;6.65;100.00;100924.41;5092724;28;20051;-74
2022/11/28 04:33:59;;;;;;;40.35;17.63;;;;;;;6.65;100.00;100917.31;5074229;28;20491;-74
2022/11/28 04:36:26;;;;;;;42.33;18.95;;;;;;;6.65;100.00;100930.53;5092849;28;20032;-74
2022/11/28 04:38:55;;;;;;;44.58;17.48;;;;;;;6.63;100.00;100932.47;5092408;28;20047;-74
2022/11/28 04:42:00;;;;;;;38.15;18.08;;;;;;;6.67;100.00;100944.50;5092401;28;20032;-75
2022/11/28 04:44:34;;;;;;;39.95;16.92;;;;;;;6.67;100.00;100941.00;5091535;28;20145;-74
2022/11/28 04:46:59;;;;;;;40.42;17.67;;;;;;;6.66;100.00;100934.03;5092382;28;20031;-74
2022/11/28 04:49:28;;;;;;;40.60;17.40;;;;;;;6.66;100.00;100936.69;5092146;28;20028;-74
2022/11/28 04:52:15;;;;;;;39.67;17.58;;;;;;;6.65;100.00;100943.75;5092103;28;20035;-75
2022/11/28 04:54:45;;;;;;;38.33;16.75;;;;;;;6.65;100.00;100933.19;5092101;28;20055;-75
2022/11/28 04:57:20;;;;;;;36.90;16.88;;;;;;;6.66;100.00;100944.63;5073994;28;20028;-75
2022/11/28 04:59:47;;;;;;;38.17;17.23;;;;;;;6.66;100.00;100936.69;5092352;28;20527;-74
2022/11/28 05:02:15;;;;;;;35.22;16.40;;;;;;;6.66;100.00;100932.22;5091837;28;20373;-74
2022/11/28 05:04:42;;;;;;;38.20;16.83;;;;;;;6.67;100.00;100941.00;5092526;28;20039;-75
2022/11/28 05:07:08;;;;;;;41.13;17.33;;;;;;;6.69;100.00;100942.59;5092072;28;20067;-74
2022/11/28 05:09:33;;;;;;;41.97;17.02;;;;;;;6.70;100.00;100949.56;5092480;28;20480;-74
2022/11/28 05:11:59;;;;;;;36.83;16.35;;;;;;;6.73;100.00;100943.19;5092012;28;20103;-75
2022/11/28 05:14:24;;;;;;;41.10;17.40;;;;;;;6.74;100.00;100944.06;5093056;28;20464;-74
2022/11/28 05:16:50;;;;;;;41.53;17.80;;;;;;;6.73;100.00;100945.00;5091878;28;20035;-76
2022/11/28 05:19:15;;;;;;;48.78;18.88;;;;;;;6.71;100.00;100937.19;5092110;28;20028;-74
2022/11/28 05:21:41;;;;;;;49.72;19.50;;;;;;;6.73;100.00;100948.47;5096355;28;20032;-75
2022/11/28 05:24:07;;;;;;;51.00;20.35;;;;;;;6.71;100.00;100945.94;5092108;28;20032;-75
2022/11/28 05:26:34;;;;;;;60.35;21.08;;;;;;;6.70;100.00;100954.84;5092210;28;20121;-74
2022/11/28 05:29:00;;;;;;;63.17;21.55;;;;;;;6.70;100.00;100959.28;5091954;28;20032;-74
2022/11/28 05:31:26;;;;;;;55.55;20.63;;;;;;;6.69;100.00;100961.09;5092277;28;20025;-75
2022/11/28 05:33:53;;;;;;;61.97;22.33;;;;;;;6.69;100.00;100953.16;5092113;28;20124;-80
2022/11/28 05:36:18;;;;;;;59.47;21.88;;;;;;;6.75;100.00;100965.09;5092272;28;20024;-74
2022/11/28 05:38:44;;;;;;;61.58;22.08;;;;;;;6.73;100.00;100961.72;5092272;28;20486;-74
2022/11/28 05:41:18;;;;;;;64.97;22.73;;;;;;;6.73;100.00;100958.22;5091927;28;20035;-75
2022/11/28 05:43:43;;;;;;;60.03;22.75;;;;;;;6.71;100.00;100958.34;5092214;28;20064;-76
2022/11/28 05:46:08;;;;;;;67.88;22.55;;;;;;;6.70;100.00;100965.44;5073772;28;20514;-75
2022/11/28 05:48:34;;;;;;;69.82;24.23;;;;;;;6.69;100.00;100962.91;5091744;28;20119;-75
2022/11/28 05:50:59;;;;;;;65.47;23.20;;;;;;;6.71;100.00;100966.28;5091651;28;20040;-76
2022/11/28 05:53:25;;;;;;;73.55;22.92;;;;;;;6.71;100.00;100976.84;5096929;28;20040;-75
2022/11/28 05:55:50;;;;;;;75.50;24.02;;;;;;;6.70;100.00;100978.66;5091980;28;20060;-75
2022/11/28 05:58:15;;;;;;;71.78;23.58;;;;;;;6.69;100.00;100978.78;5091686;28;20039;-76
2022/11/28 06:00:41;;;;;;;77.07;23.55;;;;;;;6.69;100.00;100984.91;5091936;28;20040;-75
2022/11/28 06:03:06;;;;;;;75.93;23.10;;;;;;;6.68;100.00;100983.19;5092000;28;20084;-77
2022/11/28 06:05:32;;;;;;;71.95;23.45;;;;;;;6.70;100.00;100988.38;5094493;28;20036;-76
2022/11/28 06:07:57;;;;;;;76.35;24.15;;;;;;;6.69;100.00;100982.25;5095072;28;20031;-76
2022/11/28 06:10:23;;;;;;;81.07;23.55;;;;;;;6.69;100.00;100974.31;5095511;28;20384;-76
2022/11/28 06:12:48;;;;;;;70.18;23.88;;;;;;;6.70;100.00;100973.38;5095539;28;20032;-76
2022/11/28 06:15:14;;;;;;;73.32;23.65;;;;;;;6.72;100.00;100973.25;5094888;28;20110;-76
2022/11/28 06:17:40;;;;;;;77.38;23.95;;;;;;;6.73;100.00;100971.44;5095626;28;20048;-77
2022/11/28 06:20:06;;;;;;;91.65;25.67;;;;;;;6.72;100.00;100967.97;5076944;28;20036;-76
2022/11/28 06:22:32;;;;;;;84.07;25.48;;;;;;;6.71;100.00;100972.41;5095053;28;20043;-76
2022/11/28 06:24:58;;;;;;;76.18;25.02;;;;;;;6.71;100.00;100961.81;5095488;28;20062;-75
2022/11/28 06:27:23;;;;;;;71.32;24.75;;;;;;;6.73;100.00;100966.16;5094673;28;20056;-75
2022/11/28 06:29:48;;;;;;;96.43;26.23;;;;;;;6.73;100.00;100974.94;5095221;28;20479;-76
2022/11/28 06:32:14;;;;;;;88.95;25.73;;;;;;;6.73;100.00;100987.31;5076449;28;20039;-75
2022/11/28 06:34:39;;;;;;;85.70;25.85;;;;;;;6.72;100.00;100981.19;5094925;28;20035;-75
2022/11/28 06:37:04;;;;;;;93.93;26.75;;;;;;;6.71;100.00;100987.44;5094573;28;20071;-76
2022/11/28 06:39:30;;;;;;;109.15;27.92;;;;;;;6.72;100.00;100986.47;5094782;28;20054;-76
2022/11/28 06:41:56;;;;;;;108.50;27.25;;;;;;;6.72;100.00;100983.84;5094989;28;20024;-76
2022/11/28 06:44:21;;;;;;;104.53;27.15;;;;;;;6.71;100.00;100993.56;5095209;28;20063;-76
2022/11/28 06:46:46;;;;;;;92.45;25.95;;;;;;;6.71;100.00;100993.56;5076818;28;20384;-76
2022/11/28 06:49:12;;;;;;;88.40;25.85;;;;;;;6.74;100.00;100989.84;5094210;28;20036;-76
2022/11/28 06:51:41;;;;;;;110.68;27.95;;;;;;;6.76;100.00;100997.66;5094744;28;20042;-76
2022/11/28 06:54:07;;;;;;;87.22;26.05;;;;;;;6.77;100.00;100994.09;5094354;28;20080;-76
2022/11/28 06:56:32;;;;;;;115.30;27.10;;;;;;;6.75;100.00;100993.31;5094688;28;20103;-75
2022/11/28 06:58:59;;;;;;;95.80;25.67;;;;;;;6.73;100.00;100995.25;5094421;28;20111;-76
2022/11/28 07:01:27;;;;;;;100.00;26.50;;;;;;;6.73;100.00;100995.25;5094561;28;20058;-76
2022/11/28 07:03:55;;;;;;;102.72;27.92;;;;;;;6.72;100.00;100994.41;5094221;28;20381;-75
2022/11/28 07:06:22;;;;;;;96.10;26.77;;;;;;;6.73;100.00;101005.81;5093975;28;20060;-76
2022/11/28 07:08:48;;;;;;;91.22;25.73;;;;;;;6.71;100.00;101003.28;5094389;28;20032;-76
2022/11/28 07:11:19;;;;;;;127.55;28.33;;;;;;;6.72;100.00;101002.34;5093925;28;20028;-75
2022/11/28 07:13:45;;;;;;;124.28;28.00;;;;;;;6.73;100.00;101011.13;5094013;28;20136;-76
2022/11/28 07:16:14;;;;;;;118.40;28.85;;;;;;;6.73;100.00;101013.75;5092950;28;20461;-76
2022/11/28 07:18:39;;;;;;;106.35;27.13;;;;;;;6.72;100.00;101002.34;5093746;28;20384;-76
2022/11/28 07:21:05;;;;;;;119.03;29.20;;;;;;;6.73;100.00;101013.75;5093712;28;20036;-76
2022/11/28 07:23:30;;;;;;;113.50;27.98;;;;;;;6.74;100.00;101011.00;5094431;28;20480;-76
2022/11/28 07:26:00;;;;;;;134.15;28.95;;;;;;;6.73;100.00;101011.94;5093893;28;20036;-76
2022/11/28 07:28:27;;;;;;;115.80;28.02;;;;;;;6.74;100.00;101011.00;5093682;28;20028;-76
2022/11/28 07:31:02;;;;;;;105.60;26.88;;;;;;;6.74;100.00;101016.28;5093753;28;20028;-76
2022/11/28 07:33:27;;;;;;;113.85;27.25;;;;;;;6.75;100.00;101019.78;5093279;28;20056;-75
2022/11/28 07:35:53;;;;;;;107.60;27.38;;;;;;;6.77;100.00;101031.09;5094330;28;20032;-76
2022/11/28 07:38:18;;;;;;;85.55;25.63;;;;;;;6.79;100.00;101029.19;5093369;28;20035;-75
2022/11/28 07:40:43;;;;;;;113.18;28.02;;;;;;;6.79;100.00;101023.91;5093585;28;20422;-75
2022/11/28 07:43:09;;;;;;;124.47;28.65;;;;;;;6.80;100.00;101041.47;5092892;28;20388;-78
2022/11/28 07:45:38;;;;;;;111.40;28.23;;;;;;;6.81;100.00;101037.88;5093532;28;20024;-74
2022/11/28 07:48:03;;;;;;;126.82;29.20;;;;;;;6.83;100.00;101046.53;5093392;28;20028;-75
2022/11/28 07:50:29;;;;;;;114.95;27.98;;;;;;;6.85;100.00;101034.91;5093385;28;20255;-76
2022/11/28 07:52:54;;;;;;;156.95;29.20;;;;;;;6.85;100.00;101028.75;5088761;28;20036;-76
2022/11/28 07:55:19;;;;;;;169.82;28.50;;;;;;;6.86;100.00;101033.91;5072376;28;20456;-75
2022/11/28 07:57:45;;;;;;;140.32;29.63;;;;;;;6.88;100.00;101037.31;5090920;28;20409;-75
2022/11/28 08:00:11;;;;;;;145.07;29.73;;;;;;;6.90;100.00;101037.22;5090604;28;20566;-75
2022/11/28 08:02:37;;;;;;;130.98;27.58;;;;;;;6.92;100.00;101040.56;5090583;28;20032;-75
2022/11/28 08:05:03;;;;;;;132.48;29.73;;;;;;;6.97;100.00;101041.09;5089968;28;20043;-75
2022/11/28 08:07:28;;;;;;;118.07;29.27;;;;;;;7.01;100.00;101045.19;5089920;28;20391;-75
2022/11/28 08:09:54;;;;;;;133.15;29.80;;;;;;;7.03;100.00;101045.94;5090586;28;20551;-77
2022/11/28 08:12:19;;;;;;;130.10;29.33;;;;;;;7.04;100.00;101044.13;5090377;28;20089;-77
2022/11/28 08:14:45;;;;;;;135.93;28.60;;;;;;;7.04;100.00;101055.56;5072189;28;20032;-77
2022/11/28 08:17:10;;;;;;;152.77;29.95;;;;;;;7.05;100.00;101062.53;5090129;28;20036;-77
2022/11/28 08:19:35;;;;;;;142.13;30.90;;;;;;;7.07;100.00;101070.38;5090512;28;20032;-77
2022/11/28 08:22:01;;;;;;;136.18;28.98;;;;;;;7.09;100.00;101067.63;5090209;28;20063;-77
2022/11/28 08:24:26;;;;;;;155.95;31.23;;;;;;;7.11;100.00;101063.06;5089979;28;20785;-79
2022/11/28 08:26:51;;;;;;;144.65;29.40;;;;;;;7.11;100.00;101057.78;5090733;28;20044;-77
2022/11/28 08:29:17;;;;;;;174.93;31.00;;;;;;;7.12;100.00;101055.03;5089148;28;20430;-76
2022/11/28 08:31:42;;;;;;;146.30;29.65;;;;;;;7.14;100.00;101054.91;5090209;28;20047;-76
2022/11/28 08:34:09;;;;;;;140.90;29.92;;;;;;;7.15;100.00;101056.59;5090211;28;20098;-76
2022/11/28 08:36:35;;;;;;;139.82;30.00;;;;;;;7.18;100.00;101061.66;5089896;28;20483;-75
2022/11/28 08:39:02;;;;;;;173.70;29.10;;;;;;;7.20;100.00;101052.66;5089989;28;20062;-76
2022/11/28 08:41:28;;;;;;;153.63;30.98;;;;;;;7.22;100.00;101052.53;5071394;28;20459;-77
2022/11/28 08:43:53;;;;;;;146.70;29.20;;;;;;;7.28;100.00;101056.53;5090243;28;20032;-76
2022/11/28 08:46:20;;;;;;;119.75;27.80;;;;;;;7.34;100.00;101050.78;5089656;28;20036;-76
2022/11/28 08:48:47;;;;;;;148.52;30.45;;;;;;;7.35;100.00;101050.69;5089937;28;20039;-76
2022/11/28 08:51:15;;;;;;;143.27;31.38;;;;;;;7.40;100.00;101050.34;5089733;28;20383;-76
2022/11/28 08:53:41;;;;;;;135.13;30.17;;;;;;;7.46;100.00;101055.19;5089730;28;20036;-78
2022/11/28 08:56:06;;;;;;;131.07;29.02;;;;;;;7.52;100.00;101057.38;5090144;28;20032;-76
2022/11/28 08:58:31;;;;;;;136.85;29.23;;;;;;;7.54;100.00;101060.75;5076042;28;20048;-73
2022/11/28 09:00:57;;;;;;;130.30;28.08;;;;;;;7.58;100.00;101064.03;5087678;28;20158;-71
2022/11/28 09:03:23;;;;;;;126.93;29.63;;;;;;;7.59;100.00;101061.25;5091016;28;20055;-74
2022/11/28 09:05:48;;;;;;;140.88;29.02;;;;;;;7.62;100.00;101064.66;5092229;28;20028;-74
2022/11/28 09:08:15;;;;;;;126.70;28.30;;;;;;;7.64;100.00;101071.50;5092470;28;20387;-74
2022/11/28 09:10:43;;;;;;;126.45;28.75;;;;;;;7.68;100.00;101069.47;5091221;28;20036;-74
2022/11/28 09:13:09;;;;;;;118.53;27.15;;;;;;;7.71;100.00;101069.25;5091970;28;20059;-76
2022/11/28 09:15:39;;;;;;;114.65;27.05;;;;;;;7.75;100.00;101065.44;5091287;28;20063;-76
2022/11/28 09:18:05;;;;;;;119.68;26.58;;;;;;;7.80;100.00;101071.22;5092359;28;20028;-75
2022/11/28 09:20:30;;;;;;;107.35;25.30;;;;;;;7.81;100.00;101064.09;5091817;28;20490;-75
2022/11/28 09:22:55;;;;;;;102.60;26.02;;;;;;;7.83;100.00;101067.50;5073659;28;20036;-76
2022/11/28 09:25:21;;;;;;;107.63;25.42;;;;;;;7.87;100.00;101068.97;5093758;28;20036;-77
2022/11/28 09:27:46;;;;;;;111.30;27.00;;;;;;;7.93;100.00;101071.13;5092190;28;20034;-75
2022/11/28 09:30:12;;;;;;;112.28;26.00;;;;;;;7.99;100.00;101078.63;5091816;28;20032;-75
2022/11/28 09:32:37;;;;;;;107.45;25.42;;;;;;;8.00;100.00;101069.72;5092028;28;20528;-75
2022/11/28 09:35:03;;;;;;;98.65;26.30;;;;;;;8.01;100.00;101070.56;5091886;28;20029;-76
2022/11/28 09:37:29;;;;;;;103.60;24.85;;;;;;;8.05;100.00;101066.72;5091071;28;20036;-75
2022/11/28 09:39:54;;;;;;;94.95;24.60;;;;;;;8.09;100.00;101066.34;5093586;28;20039;-74
2022/11/28 09:42:42;;;;;;;90.22;25.13;;;;;;;8.18;100.00;101077.19;5077601;28;20441;-75
2022/11/28 09:45:15;;;;;;;92.85;24.27;;;;;;;8.22;100.00;101082.16;5095320;28;20020;-74
2022/11/28 09:47:44;;;;;;;87.53;23.33;;;;;;;8.28;100.00;101084.34;5095083;28;20059;-75
2022/11/28 09:50:15;;;;;;;100.13;23.38;;;;;;;8.30;100.00;101084.22;5095508;28;20485;-73
2022/11/28 09:53:08;;;;;;;76.47;21.95;;;;;;;8.34;100.00;101096.25;5095795;28;20022;-75
2022/11/28 09:55:43;;;;;;;76.60;22.38;;;;;;;8.37;100.00;101089.91;5095456;28;20464;-76
2022/11/28 09:58:15;;;;;;;72.00;22.00;;;;;;;8.41;100.00;101092.19;5095760;28;20065;-75
2022/11/28 10:00:46;;;;;;;61.03;20.20;;;;;;;8.44;100.00;101094.63;5077232;28;20426;-74
2022/11/28 10:03:47;;;;;;;67.45;20.70;;;;;;;8.49;100.00;101093.44;5095700;28;20082;-74
2022/11/28 10:06:29;;;;;;;51.85;19.17;;;;;;;8.56;100.00;101103.44;5077232;28;20048;-75
2022/11/28 10:09:11;;;;;;;65.78;20.48;;;;;;;8.55;100.00;101095.59;5095995;28;20028;-74
2022/11/28 10:11:45;;;;;;;;;;;;;;;8.49;100.00;101096.91;5094929;28;20039;-74
2022/11/28 10:14:32;;;;;;;68.25;22.63;;;;;;;8.43;100.00;101097.38;5094947;28;20352;-74
2022/11/28 10:17:30;;;;;;;71.22;22.13;;;;;;;8.44;100.00;101104.41;5095554;28;20028;-74
2022/11/28 10:19:58;;;;;;;73.40;23.50;;;;;;;8.46;100.00;101097.16;5095025;28;20028;-73
2022/11/28 10:22:36;;;;;;;82.45;25.02;;;;;;;8.43;100.00;101094.72;5094690;28;20461;-73
2022/11/28 10:25:15;;;;;;;93.15;25.45;;;;;;;8.44;100.00;101099.09;5095083;28;20035;-75
2022/11/28 10:27:41;;;;;;;67.60;23.27;;;;;;;8.54;100.00;101093.91;5094743;28;20044;-72
2022/11/28 10:30:14;;;;;;;69.15;24.05;;;;;;;8.65;100.00;101091.28;5094761;28;20036;-72
2022/11/28 10:32:44;;;;;;;77.88;23.48;;;;;;;8.69;100.00;101103.34;5093840;28;20048;-72
2022/11/28 10:35:30;;;;;;;70.15;23.42;;;;;;;8.75;100.00;101100.19;5094338;28;20064;-72
2022/11/28 10:37:55;;;;;;;63.92;22.33;;;;;;;8.80;100.00;101102.50;5094567;28;20027;-75
2022/11/28 10:40:41;;;;;;;60.35;21.63;;;;;;;8.91;100.00;101106.94;5095487;28;20036;-74
2022/11/28 10:43:35;;;;;;;62.75;22.67;;;;;;;9.03;100.00;101107.78;5094817;28;20423;-73
2022/11/28 10:46:09;;;;;;;56.55;21.23;;;;;;;9.12;100.00;101112.34;5093653;28;20113;-77
2022/11/28 10:48:59;;;;;;;54.53;20.23;;;;;;;9.26;100.00;101113.91;5092987;28;20024;-75
2022/11/28 10:51:45;;;;;;;49.47;19.20;;;;;;;9.33;100.00;101107.09;5074937;28;20056;-75
2022/11/28 10:54:29;;;;;;;45.65;17.42;;;;;;;9.60;100.00;101109.34;5094328;28;20059;-74
2022/11/28 10:57:16;;;;;;;43.70;18.02;;;;;;;9.69;100.00;101110.41;5085789;28;20435;-75
2022/11/28 10:59:41;;;;;;;38.80;17.63;;;;;;;9.81;100.00;101113.88;5072369;28;20043;-74
2022/11/28 11:02:37;;;;;;;37.47;17.60;;;;;;;9.97;100.00;101113.41;5073210;28;20029;-76
2022/11/28 11:05:05;;;;;;;36.42;17.13;;;;;;;9.78;100.00;101111.44;5073748;28;20051;-76
2022/11/28 11:07:32;;;;;;;36.75;16.50;;;;;;;9.75;100.00;101112.56;5073653;28;20438;-75
2022/11/28 11:10:16;;;;;;;36.40;17.33;;;;;;;9.80;100.00;101118.31;5073654;28;20453;-74
2022/11/28 11:12:42;;;;;;;36.75;17.30;;;;;;;9.79;100.00;101118.44;5073258;28;20029;-75
2022/11/28 11:15:20;;;;;;;38.75;17.88;;;;;;;9.81;100.00;101122.66;5073450;28;20131;-75
2022/11/28 11:17:45;;;;;;;38.45;16.92;;;;;;;9.75;100.00;101125.84;5072983;28;20047;-74
2022/11/28 11:20:25;;;;;;;38.50;17.70;;;;;;;9.62;100.00;101126.00;5073304;28;20491;-75
2022/11/28 11:23:18;;;;;;;40.40;17.35;;;;;;;9.43;100.00;101117.84;5072924;28;20024;-74
2022/11/28 11:25:49;;;;;;;43.35;18.65;;;;;;;9.25;100.00;101115.69;5072836;28;20077;-74